sensor_id;sensor_type;location;lat;lon;timestamp;temperature;humidity
27306;DHT22;14792;50.886;6.468;2022-11-20T00:02:53;4.10;99.90
27306;DHT22;14792;50.886;6.468;2022-11-20T00:05:59;4.00;99.90
27306;DHT22;14792;50.886;6.468;2022-11-20T00:08:57;4.00;99.90
27306;DHT22;14792;50.886;6.468;2022-11-20T00:11:57;4.00;99.90
27306;DHT22;14792;50.886;6.468;2022-11-20T00:14:59;4.00;99.90
27306;DHT22;14792;50.886;6.468;2022-11-20T00:18:28;4.00;99.90
27306;DHT22;14792;50.886;6.468;2022-11-20T00:21:29;4.00;99.90
27306;DHT22;14792;50.886;6.468;2022-11-20T00:24:31;4.00;99.90
27306;DHT22;14792;50.886;6.468;2022-11-20T00:27:32;4.00;99.90
27306;DHT22;14792;50.886;6.468;2022-11-20T00:30:34;4.00;99.90
27306;DHT22;14792;50.886;6.468;2022-11-20T00:33:36;4.00;99.90
27306;DHT22;14792;50.886;6.468;2022-11-20T00:36:37;4.00;99.90
27306;DHT22;14792;50.886;6.468;2022-11-20T00:39:39;4.00;99.90
27306;DHT22;14792;50.886;6.468;2022-11-20T00:42:40;4.00;99.90
27306;DHT22;14792;50.886;6.468;2022-11-20T00:45:42;4.00;99.90
27306;DHT22;14792;50.886;6.468;2022-11-20T00:48:44;4.00;99.90
27306;DHT22;14792;50.886;6.468;2022-11-20T00:51:45;4.00;99.90
27306;DHT22;14792;50.886;6.468;2022-11-20T00:54:47;4.00;99.90
27306;DHT22;14792;50.886;6.468;2022-11-20T00:57:48;4.00;99.90
27306;DHT22;14792;50.886;6.468;2022-11-20T01:00:50;4.00;99.90
27306;DHT22;14792;50.886;6.468;2022-11-20T01:03:52;4.00;99.90
27306;DHT22;14792;50.886;6.468;2022-11-20T01:06:53;4.00;99.90
27306;DHT22;14792;50.886;6.468;2022-11-20T01:09:55;4.00;99.90
27306;DHT22;14792;50.886;6.468;2022-11-20T01:12:56;3.90;99.90
27306;DHT22;14792;50.886;6.468;2022-11-20T01:16:17;3.90;99.90
27306;DHT22;14792;50.886;6.468;2022-11-20T01:19:21;3.80;99.90
27306;DHT22;14792;50.886;6.468;2022-11-20T01:22:21;3.90;99.90
27306;DHT22;14792;50.886;6.468;2022-11-20T01:25:23;3.80;99.90
27306;DHT22;14792;50.886;6.468;2022-11-20T01:28:25;3.80;99.90
27306;DHT22;14792;50.886;6.468;2022-11-20T01:31:27;3.80;99.90
27306;DHT22;14792;50.886;6.468;2022-11-20T01:34:28;3.80;99.90
27306;DHT22;14792;50.886;6.468;2022-11-20T01:37:29;3.90;99.90
27306;DHT22;14792;50.886;6.468;2022-11-20T01:40:31;3.90;99.90
27306;DHT22;14792;50.886;6.468;2022-11-20T01:43:34;3.90;99.90
27306;DHT22;14792;50.886;6.468;2022-11-20T01:46:36;3.90;99.90
27306;DHT22;14792;50.886;6.468;2022-11-20T01:49:41;3.90;99.90
27306;DHT22;14792;50.886;6.468;2022-11-20T01:52:48;3.90;99.90
27306;DHT22;14792;50.886;6.468;2022-11-20T01:55:50;3.90;99.90
27306;DHT22;14792;50.886;6.468;2022-11-20T01:58:49;3.90;99.90
27306;DHT22;14792;50.886;6.468;2022-11-20T02:01:49;4.00;99.90
27306;DHT22;14792;50.886;6.468;2022-11-20T02:36:27;3.60;99.90
27306;DHT22;14792;50.886;6.468;2022-11-20T02:55:27;3.50;99.90
27306;DHT22;14792;50.886;6.468;2022-11-20T03:10:05;3.40;99.90
27306;DHT22;14792;50.886;6.468;2022-11-20T03:13:07;3.50;99.90
27306;DHT22;14792;50.886;6.468;2022-11-20T03:16:30;3.40;99.90
27306;DHT22;14792;50.886;6.468;2022-11-20T03:19:31;3.50;99.90
27306;DHT22;14792;50.886;6.468;2022-11-20T03:22:33;3.40;99.90
27306;DHT22;14792;50.886;6.468;2022-11-20T03:25:34;3.40;99.90
27306;DHT22;14792;50.886;6.468;2022-11-20T03:28:36;3.40;99.90
27306;DHT22;14792;50.886;6.468;2022-11-20T03:31:38;3.40;99.90
27306;DHT22;14792;50.886;6.468;2022-11-20T03:34:39;3.40;99.90
27306;DHT22;14792;50.886;6.468;2022-11-20T03:37:41;3.40;99.90
27306;DHT22;14792;50.886;6.468;2022-11-20T03:40:42;3.50;99.90
27306;DHT22;14792;50.886;6.468;2022-11-20T03:43:48;3.50;99.90
27306;DHT22;14792;50.886;6.468;2022-11-20T03:46:48;3.50;99.90
27306;DHT22;14792;50.886;6.468;2022-11-20T03:49:50;3.50;99.90
27306;DHT22;14792;50.886;6.468;2022-11-20T03:52:52;3.60;99.90
27306;DHT22;14792;50.886;6.468;2022-11-20T03:55:53;3.40;99.90
27306;DHT22;14792;50.886;6.468;2022-11-20T03:58:55;3.50;99.90
27306;DHT22;14792;50.886;6.468;2022-11-20T04:01:56;3.50;99.90
27306;DHT22;14792;50.886;6.468;2022-11-20T04:04:58;3.50;99.90
27306;DHT22;14792;50.886;6.468;2022-11-20T04:08:00;3.60;99.90
27306;DHT22;14792;50.886;6.468;2022-11-20T04:11:34;3.50;99.90
27306;DHT22;14792;50.886;6.468;2022-11-20T04:14:33;3.30;99.90
27306;DHT22;14792;50.886;6.468;2022-11-20T04:17:34;3.50;99.90
27306;DHT22;14792;50.886;6.468;2022-11-20T04:20:36;3.50;99.90
27306;DHT22;14792;50.886;6.468;2022-11-20T04:23:37;3.60;99.90
27306;DHT22;14792;50.886;6.468;2022-11-20T04:26:39;3.60;99.90
27306;DHT22;14792;50.886;6.468;2022-11-20T04:29:40;3.60;99.90
27306;DHT22;14792;50.886;6.468;2022-11-20T04:32:42;3.60;99.90
27306;DHT22;14792;50.886;6.468;2022-11-20T04:35:44;3.60;99.90
27306;DHT22;14792;50.886;6.468;2022-11-20T04:38:45;3.60;99.90
27306;DHT22;14792;50.886;6.468;2022-11-20T04:41:47;3.60;99.90
27306;DHT22;14792;50.886;6.468;2022-11-20T04:44:48;3.60;99.90
27306;DHT22;14792;50.886;6.468;2022-11-20T04:47:50;3.60;99.90
27306;DHT22;14792;50.886;6.468;2022-11-20T04:50:52;3.60;99.90
27306;DHT22;14792;50.886;6.468;2022-11-20T04:53:53;3.60;99.90
27306;DHT22;14792;50.886;6.468;2022-11-20T04:56:55;3.60;99.90
27306;DHT22;14792;50.886;6.468;2022-11-20T04:59:56;3.70;99.90
27306;DHT22;14792;50.886;6.468;2022-11-20T05:02:58;3.60;99.90
27306;DHT22;14792;50.886;6.468;2022-11-20T05:06:00;3.60;99.90
27306;DHT22;14792;50.886;6.468;2022-11-20T05:09:01;3.60;99.90
27306;DHT22;14792;50.886;6.468;2022-11-20T05:12:03;3.50;99.90
27306;DHT22;14792;50.886;6.468;2022-11-20T05:15:04;3.60;99.90
27306;DHT22;14792;50.886;6.468;2022-11-20T05:18:06;3.60;99.90
27306;DHT22;14792;50.886;6.468;2022-11-20T05:21:08;3.60;99.90
27306;DHT22;14792;50.886;6.468;2022-11-20T05:24:09;3.60;99.90
27306;DHT22;14792;50.886;6.468;2022-11-20T05:27:11;3.60;99.90
27306;DHT22;14792;50.886;6.468;2022-11-20T05:30:12;3.60;99.90
27306;DHT22;14792;50.886;6.468;2022-11-20T05:33:14;3.60;99.90
27306;DHT22;14792;50.886;6.468;2022-11-20T05:36:16;3.60;99.90
27306;DHT22;14792;50.886;6.468;2022-11-20T05:39:17;3.60;99.90
27306;DHT22;14792;50.886;6.468;2022-11-20T05:42:19;3.60;99.90
27306;DHT22;14792;50.886;6.468;2022-11-20T05:45:32;3.60;99.90
27306;DHT22;14792;50.886;6.468;2022-11-20T05:48:34;3.60;99.90
27306;DHT22;14792;50.886;6.468;2022-11-20T05:51:36;3.50;99.90
27306;DHT22;14792;50.886;6.468;2022-11-20T05:54:37;3.60;99.90
27306;DHT22;14792;50.886;6.468;2022-11-20T05:57:39;3.70;99.90
27306;DHT22;14792;50.886;6.468;2022-11-20T06:00:40;3.70;99.90
27306;DHT22;14792;50.886;6.468;2022-11-20T06:03:42;3.70;99.90
27306;DHT22;14792;50.886;6.468;2022-11-20T06:06:44;3.60;99.90
27306;DHT22;14792;50.886;6.468;2022-11-20T06:09:45;3.70;99.90
27306;DHT22;14792;50.886;6.468;2022-11-20T06:12:47;3.80;99.90
27306;DHT22;14792;50.886;6.468;2022-11-20T06:15:52;3.70;99.90
27306;DHT22;14792;50.886;6.468;2022-11-20T06:22:49;3.80;99.90
27306;DHT22;14792;50.886;6.468;2022-11-20T06:25:51;3.80;99.90
27306;DHT22;14792;50.886;6.468;2022-11-20T06:28:53;3.80;99.90
27306;DHT22;14792;50.886;6.468;2022-11-20T06:31:54;3.80;99.90
27306;DHT22;14792;50.886;6.468;2022-11-20T06:34:56;3.80;99.90
27306;DHT22;14792;50.886;6.468;2022-11-20T06:37:57;3.70;99.90
27306;DHT22;14792;50.886;6.468;2022-11-20T06:40:59;3.60;99.90
27306;DHT22;14792;50.886;6.468;2022-11-20T06:44:00;3.70;99.90
27306;DHT22;14792;50.886;6.468;2022-11-20T06:47:29;3.70;99.90
27306;DHT22;14792;50.886;6.468;2022-11-20T06:50:31;3.70;99.90
27306;DHT22;14792;50.886;6.468;2022-11-20T06:53:33;3.70;99.90
27306;DHT22;14792;50.886;6.468;2022-11-20T06:56:34;3.70;99.90
27306;DHT22;14792;50.886;6.468;2022-11-20T06:59:36;3.70;99.90
27306;DHT22;14792;50.886;6.468;2022-11-20T07:06:28;3.70;99.90
27306;DHT22;14792;50.886;6.468;2022-11-20T07:09:29;3.70;99.90
27306;DHT22;14792;50.886;6.468;2022-11-20T07:12:31;3.60;99.90
27306;DHT22;14792;50.886;6.468;2022-11-20T07:15:32;3.60;99.90
27306;DHT22;14792;50.886;6.468;2022-11-20T07:18:34;3.50;99.90
27306;DHT22;14792;50.886;6.468;2022-11-20T07:21:36;3.50;99.90
27306;DHT22;14792;50.886;6.468;2022-11-20T07:24:37;3.60;99.90
27306;DHT22;14792;50.886;6.468;2022-11-20T07:27:39;3.60;99.90
27306;DHT22;14792;50.886;6.468;2022-11-20T07:30:40;3.60;99.90
27306;DHT22;14792;50.886;6.468;2022-11-20T07:33:42;3.60;99.90
27306;DHT22;14792;50.886;6.468;2022-11-20T07:36:44;3.70;99.90
27306;DHT22;14792;50.886;6.468;2022-11-20T07:39:45;3.70;99.90
27306;DHT22;14792;50.886;6.468;2022-11-20T07:42:47;3.80;99.90
27306;DHT22;14792;50.886;6.468;2022-11-20T07:45:48;3.80;99.90
27306;DHT22;14792;50.886;6.468;2022-11-20T07:48:50;3.80;99.90
27306;DHT22;14792;50.886;6.468;2022-11-20T07:51:52;3.80;99.90
27306;DHT22;14792;50.886;6.468;2022-11-20T07:54:56;3.90;99.90
27306;DHT22;14792;50.886;6.468;2022-11-20T07:57:58;3.90;99.90
27306;DHT22;14792;50.886;6.468;2022-11-20T08:01:06;3.90;99.90
27306;DHT22;14792;50.886;6.468;2022-11-20T08:04:07;3.90;99.90
27306;DHT22;14792;50.886;6.468;2022-11-20T08:07:08;4.00;99.90
27306;DHT22;14792;50.886;6.468;2022-11-20T08:10:11;4.10;99.90
27306;DHT22;14792;50.886;6.468;2022-11-20T08:13:12;4.10;99.90
27306;DHT22;14792;50.886;6.468;2022-11-20T08:16:31;4.10;99.90
27306;DHT22;14792;50.886;6.468;2022-11-20T08:19:33;4.10;99.90
27306;DHT22;14792;50.886;6.468;2022-11-20T08:22:34;4.20;99.90
27306;DHT22;14792;50.886;6.468;2022-11-20T08:25:36;4.10;99.90
27306;DHT22;14792;50.886;6.468;2022-11-20T08:28:38;4.20;99.90
27306;DHT22;14792;50.886;6.468;2022-11-20T08:31:39;4.10;99.90
27306;DHT22;14792;50.886;6.468;2022-11-20T08:34:41;4.10;99.90
27306;DHT22;14792;50.886;6.468;2022-11-20T08:37:45;4.20;99.90
27306;DHT22;14792;50.886;6.468;2022-11-20T08:40:44;4.30;99.90
27306;DHT22;14792;50.886;6.468;2022-11-20T08:43:45;4.30;99.90
27306;DHT22;14792;50.886;6.468;2022-11-20T08:46:47;4.40;99.90
27306;DHT22;14792;50.886;6.468;2022-11-20T08:49:49;4.40;99.90
27306;DHT22;14792;50.886;6.468;2022-11-20T08:52:50;4.50;99.90
27306;DHT22;14792;50.886;6.468;2022-11-20T08:55:52;4.50;99.90
27306;DHT22;14792;50.886;6.468;2022-11-20T08:58:53;4.50;99.90
27306;DHT22;14792;50.886;6.468;2022-11-20T09:01:55;4.50;99.90
27306;DHT22;14792;50.886;6.468;2022-11-20T09:04:57;4.60;99.90
27306;DHT22;14792;50.886;6.468;2022-11-20T09:07:58;4.70;99.90
27306;DHT22;14792;50.886;6.468;2022-11-20T09:11:00;4.70;99.90
27306;DHT22;14792;50.886;6.468;2022-11-20T09:14:01;4.50;99.90
27306;DHT22;14792;50.886;6.468;2022-11-20T09:17:03;4.50;99.90
27306;DHT22;14792;50.886;6.468;2022-11-20T09:20:05;4.60;99.90
27306;DHT22;14792;50.886;6.468;2022-11-20T09:23:06;4.70;99.90
27306;DHT22;14792;50.886;6.468;2022-11-20T09:26:11;5.00;99.90
27306;DHT22;14792;50.886;6.468;2022-11-20T09:29:12;5.00;99.90
27306;DHT22;14792;50.886;6.468;2022-11-20T09:32:14;5.10;99.90
27306;DHT22;14792;50.886;6.468;2022-11-20T09:35:15;5.20;99.90
27306;DHT22;14792;50.886;6.468;2022-11-20T09:38:17;5.20;99.90
27306;DHT22;14792;50.886;6.468;2022-11-20T09:41:42;5.30;99.90
27306;DHT22;14792;50.886;6.468;2022-11-20T09:51:30;5.00;99.90
27306;DHT22;14792;50.886;6.468;2022-11-20T09:54:29;5.00;99.90
27306;DHT22;14792;50.886;6.468;2022-11-20T09:57:34;5.10;99.90
27306;DHT22;14792;50.886;6.468;2022-11-20T10:04:28;5.30;99.90
27306;DHT22;14792;50.886;6.468;2022-11-20T10:07:39;5.40;99.90
27306;DHT22;14792;50.886;6.468;2022-11-20T10:10:46;5.30;99.90
27306;DHT22;14792;50.886;6.468;2022-11-20T10:20:47;5.30;99.90
27306;DHT22;14792;50.886;6.468;2022-11-20T10:24:14;5.20;99.90
27306;DHT22;14792;50.886;6.468;2022-11-20T10:30:23;5.20;99.90
27306;DHT22;14792;50.886;6.468;2022-11-20T10:33:25;5.20;99.90
27306;DHT22;14792;50.886;6.468;2022-11-20T10:36:28;5.20;99.90
27306;DHT22;14792;50.886;6.468;2022-11-20T10:39:51;5.20;99.90
27306;DHT22;14792;50.886;6.468;2022-11-20T10:42:52;5.30;99.90
27306;DHT22;14792;50.886;6.468;2022-11-20T10:45:59;5.30;99.90
27306;DHT22;14792;50.886;6.468;2022-11-20T10:48:59;5.30;99.90
27306;DHT22;14792;50.886;6.468;2022-11-20T10:52:12;5.30;99.90
27306;DHT22;14792;50.886;6.468;2022-11-20T11:02:29;5.50;99.90
27306;DHT22;14792;50.886;6.468;2022-11-20T11:08:58;5.30;99.90
27306;DHT22;14792;50.886;6.468;2022-11-20T11:11:59;5.30;99.90
27306;DHT22;14792;50.886;6.468;2022-11-20T11:15:00;5.30;99.90
27306;DHT22;14792;50.886;6.468;2022-11-20T11:18:02;5.30;99.90
27306;DHT22;14792;50.886;6.468;2022-11-20T11:21:04;5.20;99.90
27306;DHT22;14792;50.886;6.468;2022-11-20T11:24:14;5.20;99.90
27306;DHT22;14792;50.886;6.468;2022-11-20T11:27:11;5.30;99.90
27306;DHT22;14792;50.886;6.468;2022-11-20T11:30:15;5.30;99.90
27306;DHT22;14792;50.886;6.468;2022-11-20T11:33:18;5.30;99.90
27306;DHT22;14792;50.886;6.468;2022-11-20T11:36:21;5.30;99.90
27306;DHT22;14792;50.886;6.468;2022-11-20T11:39:22;5.20;99.90
27306;DHT22;14792;50.886;6.468;2022-11-20T11:42:23;5.40;99.90
27306;DHT22;14792;50.886;6.468;2022-11-20T11:45:28;5.40;99.90
27306;DHT22;14792;50.886;6.468;2022-11-20T11:48:29;5.40;99.90
27306;DHT22;14792;50.886;6.468;2022-11-20T11:51:35;5.50;99.90
27306;DHT22;14792;50.886;6.468;2022-11-20T11:54:54;5.60;99.90
27306;DHT22;14792;50.886;6.468;2022-11-20T12:01:08;5.70;99.90
27306;DHT22;14792;50.886;6.468;2022-11-20T12:10:59;5.80;99.90
27306;DHT22;14792;50.886;6.468;2022-11-20T12:14:32;5.90;99.90
27306;DHT22;14792;50.886;6.468;2022-11-20T12:17:34;6.10;99.90
27306;DHT22;14792;50.886;6.468;2022-11-20T12:20:39;6.00;99.90
27306;DHT22;14792;50.886;6.468;2022-11-20T12:23:44;6.10;99.90
27306;DHT22;14792;50.886;6.468;2022-11-20T12:36:08;6.40;99.90
27306;DHT22;14792;50.886;6.468;2022-11-20T12:39:17;6.40;99.90
27306;DHT22;14792;50.886;6.468;2022-11-20T12:42:30;6.40;99.90
27306;DHT22;14792;50.886;6.468;2022-11-20T12:49:09;6.30;99.90
27306;DHT22;14792;50.886;6.468;2022-11-20T12:55:36;6.30;99.90
27306;DHT22;14792;50.886;6.468;2022-11-20T13:08:35;6.40;99.90
27306;DHT22;14792;50.886;6.468;2022-11-20T13:11:57;6.40;99.90
27306;DHT22;14792;50.886;6.468;2022-11-20T13:14:47;6.30;99.90
27306;DHT22;14792;50.886;6.468;2022-11-20T13:17:59;6.30;99.90
27306;DHT22;14792;50.886;6.468;2022-11-20T13:21:00;6.30;99.90
27306;DHT22;14792;50.886;6.468;2022-11-20T13:27:22;6.00;99.90
27306;DHT22;14792;50.886;6.468;2022-11-20T13:30:26;6.20;99.90
27306;DHT22;14792;50.886;6.468;2022-11-20T13:33:31;6.20;99.90
27306;DHT22;14792;50.886;6.468;2022-11-20T13:36:31;6.20;99.90
27306;DHT22;14792;50.886;6.468;2022-11-20T13:39:33;6.20;99.90
27306;DHT22;14792;50.886;6.468;2022-11-20T13:42:53;6.20;99.90
27306;DHT22;14792;50.886;6.468;2022-11-20T13:48:58;6.40;99.90
27306;DHT22;14792;50.886;6.468;2022-11-20T14:02:14;6.50;99.90
27306;DHT22;14792;50.886;6.468;2022-11-20T14:05:22;6.60;99.90
27306;DHT22;14792;50.886;6.468;2022-11-20T14:08:32;6.80;99.90
27306;DHT22;14792;50.886;6.468;2022-11-20T14:11:30;6.70;99.90
27306;DHT22;14792;50.886;6.468;2022-11-20T14:14:33;6.70;99.90
27306;DHT22;14792;50.886;6.468;2022-11-20T14:17:35;6.70;99.90
27306;DHT22;14792;50.886;6.468;2022-11-20T14:20:36;6.80;99.90
27306;DHT22;14792;50.886;6.468;2022-11-20T14:23:38;6.80;99.90
27306;DHT22;14792;50.886;6.468;2022-11-20T14:26:42;7.00;99.90
27306;DHT22;14792;50.886;6.468;2022-11-20T14:29:44;6.90;99.90
27306;DHT22;14792;50.886;6.468;2022-11-20T14:32:46;7.00;99.90
27306;DHT22;14792;50.886;6.468;2022-11-20T14:35:48;7.00;99.90
27306;DHT22;14792;50.886;6.468;2022-11-20T14:38:49;7.00;99.90
27306;DHT22;14792;50.886;6.468;2022-11-20T14:41:53;7.00;99.90
27306;DHT22;14792;50.886;6.468;2022-11-20T14:44:58;6.90;99.90
27306;DHT22;14792;50.886;6.468;2022-11-20T14:47:59;6.80;99.90
27306;DHT22;14792;50.886;6.468;2022-11-20T14:55:32;7.20;99.90
27306;DHT22;14792;50.886;6.468;2022-11-20T14:59:28;7.00;99.90
27306;DHT22;14792;50.886;6.468;2022-11-20T15:34:28;7.10;99.90
27306;DHT22;14792;50.886;6.468;2022-11-20T15:49:28;6.70;99.90
27306;DHT22;14792;50.886;6.468;2022-11-20T16:00:29;6.40;99.90
27306;DHT22;14792;50.886;6.468;2022-11-20T16:03:30;6.60;99.90
27306;DHT22;14792;50.886;6.468;2022-11-20T16:06:33;6.50;99.90
27306;DHT22;14792;50.886;6.468;2022-11-20T16:09:35;6.60;99.90
27306;DHT22;14792;50.886;6.468;2022-11-20T16:12:36;6.50;99.90
27306;DHT22;14792;50.886;6.468;2022-11-20T16:15:57;6.60;99.90
27306;DHT22;14792;50.886;6.468;2022-11-20T16:18:58;6.60;99.90
27306;DHT22;14792;50.886;6.468;2022-11-20T16:21:59;6.60;99.90
27306;DHT22;14792;50.886;6.468;2022-11-20T16:25:04;6.70;99.90
27306;DHT22;14792;50.886;6.468;2022-11-20T16:28:06;6.60;99.90
27306;DHT22;14792;50.886;6.468;2022-11-20T16:31:29;6.70;99.90
27306;DHT22;14792;50.886;6.468;2022-11-20T16:34:31;6.70;99.90
27306;DHT22;14792;50.886;6.468;2022-11-20T16:37:34;6.70;99.90
27306;DHT22;14792;50.886;6.468;2022-11-20T16:40:35;6.80;99.90
27306;DHT22;14792;50.886;6.468;2022-11-20T16:43:37;6.80;99.90
27306;DHT22;14792;50.886;6.468;2022-11-20T16:46:38;6.70;99.90
27306;DHT22;14792;50.886;6.468;2022-11-20T16:49:40;6.70;99.90
27306;DHT22;14792;50.886;6.468;2022-11-20T16:52:41;6.80;99.90
27306;DHT22;14792;50.886;6.468;2022-11-20T16:55:43;6.80;99.90
27306;DHT22;14792;50.886;6.468;2022-11-20T16:58:45;6.80;99.90
27306;DHT22;14792;50.886;6.468;2022-11-20T17:01:46;6.80;99.90
27306;DHT22;14792;50.886;6.468;2022-11-20T17:04:48;6.80;99.90
27306;DHT22;14792;50.886;6.468;2022-11-20T17:07:49;6.80;99.90
27306;DHT22;14792;50.886;6.468;2022-11-20T17:10:51;6.80;99.90
27306;DHT22;14792;50.886;6.468;2022-11-20T17:13:55;6.80;99.90
27306;DHT22;14792;50.886;6.468;2022-11-20T17:16:57;6.80;99.90
27306;DHT22;14792;50.886;6.468;2022-11-20T17:19:58;6.80;99.90
27306;DHT22;14792;50.886;6.468;2022-11-20T17:23:00;6.90;99.90
27306;DHT22;14792;50.886;6.468;2022-11-20T17:29:30;7.00;99.90
27306;DHT22;14792;50.886;6.468;2022-11-20T17:32:32;7.00;99.90
27306;DHT22;14792;50.886;6.468;2022-11-20T17:35:34;7.10;99.90
27306;DHT22;14792;50.886;6.468;2022-11-20T17:38:35;7.20;99.90
27306;DHT22;14792;50.886;6.468;2022-11-20T17:41:37;7.20;99.90
27306;DHT22;14792;50.886;6.468;2022-11-20T17:44:38;7.30;99.90
27306;DHT22;14792;50.886;6.468;2022-11-20T17:47:40;7.40;99.90
27306;DHT22;14792;50.886;6.468;2022-11-20T17:50:42;7.50;99.90
27306;DHT22;14792;50.886;6.468;2022-11-20T17:53:44;7.50;99.90
27306;DHT22;14792;50.886;6.468;2022-11-20T17:56:45;7.50;99.90
27306;DHT22;14792;50.886;6.468;2022-11-20T17:59:58;7.50;99.90
27306;DHT22;14792;50.886;6.468;2022-11-20T18:02:59;7.60;99.90
27306;DHT22;14792;50.886;6.468;2022-11-20T18:06:08;7.60;99.90
27306;DHT22;14792;50.886;6.468;2022-11-20T18:09:08;7.60;99.90
27306;DHT22;14792;50.886;6.468;2022-11-20T18:12:10;7.70;99.90
27306;DHT22;14792;50.886;6.468;2022-11-20T18:15:12;7.70;99.90
27306;DHT22;14792;50.886;6.468;2022-11-20T18:18:13;7.70;99.90
27306;DHT22;14792;50.886;6.468;2022-11-20T18:21:15;7.80;99.90
27306;DHT22;14792;50.886;6.468;2022-11-20T18:24:16;7.80;99.90
27306;DHT22;14792;50.886;6.468;2022-11-20T18:27:18;7.80;99.90
27306;DHT22;14792;50.886;6.468;2022-11-20T18:30:19;7.80;99.90
27306;DHT22;14792;50.886;6.468;2022-11-20T18:33:21;7.80;99.90
27306;DHT22;14792;50.886;6.468;2022-11-20T18:36:23;7.70;99.90
27306;DHT22;14792;50.886;6.468;2022-11-20T18:39:24;7.80;99.90
27306;DHT22;14792;50.886;6.468;2022-11-20T18:42:26;7.80;99.90
27306;DHT22;14792;50.886;6.468;2022-11-20T18:45:45;7.80;99.90
27306;DHT22;14792;50.886;6.468;2022-11-20T18:48:47;7.80;99.90
27306;DHT22;14792;50.886;6.468;2022-11-20T18:51:48;7.90;99.90
27306;DHT22;14792;50.886;6.468;2022-11-20T18:54:50;7.80;99.90
27306;DHT22;14792;50.886;6.468;2022-11-20T18:57:52;7.80;99.90
27306;DHT22;14792;50.886;6.468;2022-11-20T19:00:53;7.80;99.90
27306;DHT22;14792;50.886;6.468;2022-11-20T19:03:55;7.90;99.90
27306;DHT22;14792;50.886;6.468;2022-11-20T19:06:56;7.90;99.90
27306;DHT22;14792;50.886;6.468;2022-11-20T19:09:58;7.90;99.90
27306;DHT22;14792;50.886;6.468;2022-11-20T19:13:00;7.90;99.90
27306;DHT22;14792;50.886;6.468;2022-11-20T19:16:23;7.90;99.90
27306;DHT22;14792;50.886;6.468;2022-11-20T19:19:03;7.90;99.90
27306;DHT22;14792;50.886;6.468;2022-11-20T19:22:05;7.90;99.90
27306;DHT22;14792;50.886;6.468;2022-11-20T19:25:06;7.90;99.90
27306;DHT22;14792;50.886;6.468;2022-11-20T19:28:08;7.90;99.90
27306;DHT22;14792;50.886;6.468;2022-11-20T19:31:10;8.00;99.90
27306;DHT22;14792;50.886;6.468;2022-11-20T19:34:11;7.90;99.90
27306;DHT22;14792;50.886;6.468;2022-11-20T19:37:13;7.90;99.90
27306;DHT22;14792;50.886;6.468;2022-11-20T19:40:14;7.90;99.90
27306;DHT22;14792;50.886;6.468;2022-11-20T19:43:16;7.90;99.90
27306;DHT22;14792;50.886;6.468;2022-11-20T19:46:18;7.90;99.90
27306;DHT22;14792;50.886;6.468;2022-11-20T19:49:19;7.90;99.90
27306;DHT22;14792;50.886;6.468;2022-11-20T19:52:21;7.90;99.90
27306;DHT22;14792;50.886;6.468;2022-11-20T19:55:22;8.10;99.90
27306;DHT22;14792;50.886;6.468;2022-11-20T19:58:24;7.90;99.90
27306;DHT22;14792;50.886;6.468;2022-11-20T20:01:27;7.90;99.90
27306;DHT22;14792;50.886;6.468;2022-11-20T20:04:27;7.90;99.90
27306;DHT22;14792;50.886;6.468;2022-11-20T20:07:29;8.00;99.90
27306;DHT22;14792;50.886;6.468;2022-11-20T20:10:30;7.90;99.90
27306;DHT22;14792;50.886;6.468;2022-11-20T20:13:32;7.80;99.90
27306;DHT22;14792;50.886;6.468;2022-11-20T20:16:35;7.80;99.90
27306;DHT22;14792;50.886;6.468;2022-11-20T20:19:37;7.80;99.90
27306;DHT22;14792;50.886;6.468;2022-11-20T20:22:39;7.80;99.90
27306;DHT22;14792;50.886;6.468;2022-11-20T20:25:42;7.70;99.90
27306;DHT22;14792;50.886;6.468;2022-11-20T20:28:43;7.70;99.90
27306;DHT22;14792;50.886;6.468;2022-11-20T20:31:45;7.70;99.90
27306;DHT22;14792;50.886;6.468;2022-11-20T20:34:46;7.70;99.90
27306;DHT22;14792;50.886;6.468;2022-11-20T20:37:48;7.70;99.90
27306;DHT22;14792;50.886;6.468;2022-11-20T20:40:49;7.60;99.90
27306;DHT22;14792;50.886;6.468;2022-11-20T20:43:51;7.50;99.90
27306;DHT22;14792;50.886;6.468;2022-11-20T20:47:10;7.40;99.90
27306;DHT22;14792;50.886;6.468;2022-11-20T20:50:12;7.40;99.90
27306;DHT22;14792;50.886;6.468;2022-11-20T20:53:14;7.40;99.90
27306;DHT22;14792;50.886;6.468;2022-11-20T20:56:15;7.30;99.90
27306;DHT22;14792;50.886;6.468;2022-11-20T20:59:17;7.20;99.90
27306;DHT22;14792;50.886;6.468;2022-11-20T21:02:18;7.20;99.90
27306;DHT22;14792;50.886;6.468;2022-11-20T21:05:20;7.20;99.90
27306;DHT22;14792;50.886;6.468;2022-11-20T21:08:22;7.10;99.90
27306;DHT22;14792;50.886;6.468;2022-11-20T21:11:23;7.10;99.90
27306;DHT22;14792;50.886;6.468;2022-11-20T21:14:25;7.10;99.90
27306;DHT22;14792;50.886;6.468;2022-11-20T21:17:26;7.10;99.90
27306;DHT22;14792;50.886;6.468;2022-11-20T21:20:28;7.10;99.90
27306;DHT22;14792;50.886;6.468;2022-11-20T21:23:48;7.10;99.90
27306;DHT22;14792;50.886;6.468;2022-11-20T21:26:49;7.10;99.90
27306;DHT22;14792;50.886;6.468;2022-11-20T21:29:51;7.10;99.90
27306;DHT22;14792;50.886;6.468;2022-11-20T21:32:52;7.10;99.90
27306;DHT22;14792;50.886;6.468;2022-11-20T21:35:54;7.10;99.90
27306;DHT22;14792;50.886;6.468;2022-11-20T21:38:56;7.20;99.90
27306;DHT22;14792;50.886;6.468;2022-11-20T21:41:57;7.20;99.90
27306;DHT22;14792;50.886;6.468;2022-11-20T21:44:59;7.20;99.90
27306;DHT22;14792;50.886;6.468;2022-11-20T21:48:00;7.30;99.90
27306;DHT22;14792;50.886;6.468;2022-11-20T21:51:09;7.20;99.90
27306;DHT22;14792;50.886;6.468;2022-11-20T21:54:08;7.30;99.90
27306;DHT22;14792;50.886;6.468;2022-11-20T21:57:08;7.30;99.90
27306;DHT22;14792;50.886;6.468;2022-11-20T22:00:10;7.30;99.90
27306;DHT22;14792;50.886;6.468;2022-11-20T22:03:11;7.20;99.90
27306;DHT22;14792;50.886;6.468;2022-11-20T22:06:13;7.20;99.90
27306;DHT22;14792;50.886;6.468;2022-11-20T22:09:14;7.20;99.90
27306;DHT22;14792;50.886;6.468;2022-11-20T22:12:16;7.30;99.90
27306;DHT22;14792;50.886;6.468;2022-11-20T22:15:18;7.30;99.90
27306;DHT22;14792;50.886;6.468;2022-11-20T22:18:19;7.40;99.90
27306;DHT22;14792;50.886;6.468;2022-11-20T22:21:22;7.40;99.90
27306;DHT22;14792;50.886;6.468;2022-11-20T22:24:22;7.40;99.90
27306;DHT22;14792;50.886;6.468;2022-11-20T22:27:24;7.40;99.90
27306;DHT22;14792;50.886;6.468;2022-11-20T22:30:25;7.40;99.90
27306;DHT22;14792;50.886;6.468;2022-11-20T22:33:27;7.40;99.90
27306;DHT22;14792;50.886;6.468;2022-11-20T22:36:29;7.40;99.90
27306;DHT22;14792;50.886;6.468;2022-11-20T22:39:30;7.40;99.90
27306;DHT22;14792;50.886;6.468;2022-11-20T22:42:32;7.40;99.90
27306;DHT22;14792;50.886;6.468;2022-11-20T22:45:34;7.40;99.90
27306;DHT22;14792;50.886;6.468;2022-11-20T22:48:36;7.40;99.90
27306;DHT22;14792;50.886;6.468;2022-11-20T22:51:38;7.40;99.90
27306;DHT22;14792;50.886;6.468;2022-11-20T22:54:38;7.40;99.90
27306;DHT22;14792;50.886;6.468;2022-11-20T22:57:40;7.50;99.90
27306;DHT22;14792;50.886;6.468;2022-11-20T23:00:41;7.50;99.90
27306;DHT22;14792;50.886;6.468;2022-11-20T23:03:44;7.50;99.90
27306;DHT22;14792;50.886;6.468;2022-11-20T23:06:45;7.50;99.90